Time;durP1;ratioP1;P1;durP2;ratioP2;P2;SDS_P1;SDS_P2;PMS_P1;PMS_P2;Temp;Humidity;BMP_temperature;BMP_pressure;BME280_temperature;BME280_humidity;BME280_pressure;Samples;Min_cycle;Max_cycle;Signal;HPM_P1;HPM_P2
2024/01/10 00:00:15;;;;;;;11.00;7.10;;;-3.30;99.90;;;;;;5059599;28;20198;-85
2024/01/10 00:02:40;;;;;;;11.93;6.80;;;-3.30;99.90;;;;;;5063774;28;20185;-84
2024/01/10 00:05:06;;;;;;;11.20;6.10;;;-3.30;99.90;;;;;;5087698;28;20197;-84
2024/01/10 00:07:32;;;;;;;15.10;6.63;;;-3.30;99.90;;;;;;5081841;28;20189;-84
2024/01/10 00:09:59;;;;;;;11.83;6.97;;;-3.30;99.90;;;;;;5077939;28;20538;-85
2024/01/10 00:12:25;;;;;;;11.18;6.30;;;-3.40;99.90;;;;;;5062249;28;20282;-83
2024/01/10 00:14:50;;;;;;;12.60;6.60;;;-3.40;99.90;;;;;;5080388;28;20213;-85
2024/01/10 00:17:16;;;;;;;13.97;8.00;;;-3.40;99.90;;;;;;5080723;28;20186;-85
2024/01/10 00:19:41;;;;;;;11.47;7.20;;;-3.40;99.90;;;;;;5070945;28;20202;-83
2024/01/10 00:22:07;;;;;;;12.47;7.30;;;-3.50;99.90;;;;;;5101745;28;20562;-84
2024/01/10 00:24:32;;;;;;;7.97;6.10;;;-3.50;99.90;;;;;;5084932;28;20264;-85
2024/01/10 00:27:01;;;;;;;12.53;6.87;;;-3.60;99.90;;;;;;5078802;28;20194;-84
2024/01/10 00:29:29;;;;;;;13.30;6.90;;;-3.60;99.90;;;;;;5060615;28;20643;-84
2024/01/10 00:31:59;;;;;;;12.30;6.85;;;-3.70;99.90;;;;;;5072785;28;20257;-84
2024/01/10 00:34:24;;;;;;;14.13;7.78;;;-3.70;99.90;;;;;;5079291;28;20205;-85
2024/01/10 00:36:50;;;;;;;13.00;7.33;;;-3.80;99.90;;;;;;5073701;28;20182;-84
2024/01/10 00:39:15;;;;;;;13.87;7.13;;;-3.80;99.90;;;;;;5080740;28;20274;-85
2024/01/10 00:41:41;;;;;;;11.77;6.00;;;-3.80;99.90;;;;;;5080789;28;20185;-85
2024/01/10 00:44:06;;;;;;;14.67;6.73;;;-3.80;99.90;;;;;;5062860;28;20173;-85
2024/01/10 00:46:32;;;;;;;14.67;7.03;;;-3.80;99.90;;;;;;5079022;28;20205;-85
2024/01/10 00:48:57;;;;;;;13.03;6.63;;;-3.90;99.90;;;;;;5074841;28;20193;-85
2024/01/10 00:51:23;;;;;;;12.40;7.30;;;-3.90;99.90;;;;;;5055166;28;20185;-85
2024/01/10 00:53:48;;;;;;;13.70;6.57;;;-3.90;99.90;;;;;;5076432;28;20240;-84
2024/01/10 00:56:14;;;;;;;14.90;6.97;;;-3.90;99.90;;;;;;5084000;28;20213;-84
2024/01/10 00:58:41;;;;;;;11.00;6.70;;;-3.90;99.90;;;;;;5079786;28;20184;-84
2024/01/10 01:01:09;;;;;;;26.13;7.82;;;-3.90;99.90;;;;;;5076422;28;20649;-85
2024/01/10 01:03:36;;;;;;;16.50;7.13;;;-3.90;99.90;;;;;;5072149;28;20185;-84
2024/01/10 01:06:01;;;;;;;19.98;7.05;;;-3.90;99.90;;;;;;5080425;28;20242;-84
2024/01/10 01:08:27;;;;;;;18.80;6.87;;;-4.00;99.90;;;;;;5083997;28;20847;-84
2024/01/10 01:10:55;;;;;;;15.30;6.67;;;-4.00;99.90;;;;;;5060131;28;20200;-85
2024/01/10 01:13:21;;;;;;;15.10;7.57;;;-3.90;99.90;;;;;;5095772;28;20561;-84
2024/01/10 01:15:46;;;;;;;14.60;6.83;;;-4.00;99.90;;;;;;5080473;28;20212;-85
2024/01/10 01:18:12;;;;;;;16.33;8.37;;;-4.00;99.90;;;;;;5081971;28;21190;-83
2024/01/10 01:20:38;;;;;;;13.10;6.87;;;-4.10;99.90;;;;;;5077671;28;20185;-84
2024/01/10 01:23:04;;;;;;;17.67;7.90;;;-4.00;99.90;;;;;;5081510;28;20450;-85
2024/01/10 01:25:29;;;;;;;11.03;7.27;;;-4.10;99.90;;;;;;5077396;28;20215;-85
2024/01/10 01:27:55;;;;;;;13.17;7.17;;;-4.00;99.90;;;;;;5070771;28;20253;-85
2024/01/10 01:30:24;;;;;;;17.80;7.70;;;-4.00;99.90;;;;;;5076922;28;20185;-85
2024/01/10 01:32:49;;;;;;;13.40;7.43;;;-3.90;99.90;;;;;;5076550;28;20276;-85
2024/01/10 01:35:21;;;;;;;11.00;6.13;;;-3.90;99.90;;;;;;5076010;28;20244;-85
2024/01/10 01:37:46;;;;;;;17.80;7.30;;;-3.90;99.90;;;;;;5083884;28;20263;-85
2024/01/10 01:40:12;;;;;;;10.67;6.30;;;-3.90;99.90;;;;;;5084058;28;20264;-84
2024/01/10 01:42:38;;;;;;;11.40;5.93;;;-3.80;99.90;;;;;;5078523;28;20194;-85
2024/01/10 01:45:04;;;;;;;9.83;6.40;;;-3.80;99.90;;;;;;5076978;28;20218;-86
2024/01/10 01:47:32;;;;;;;12.60;6.75;;;-3.80;99.90;;;;;;5078885;28;20189;-84
2024/01/10 01:49:57;;;;;;;10.70;6.70;;;-3.80;99.90;;;;;;5084160;28;20569;-84
2024/01/10 01:52:24;;;;;;;15.90;6.90;;;-3.80;99.90;;;;;;5085469;28;20177;-86
2024/01/10 01:54:50;;;;;;;11.65;6.05;;;-3.90;99.90;;;;;;5092967;28;20216;-84
2024/01/10 01:57:15;;;;;;;13.43;6.77;;;-3.90;99.90;;;;;;5079695;28;21206;-85
2024/01/10 01:59:41;;;;;;;9.23;6.20;;;-3.90;99.90;;;;;;5078324;28;20237;-84
2024/01/10 02:02:07;;;;;;;12.83;6.10;;;-3.90;99.90;;;;;;5079983;28;20181;-85
2024/01/10 02:04:33;;;;;;;9.50;6.00;;;-3.90;99.90;;;;;;5075389;28;20604;-85
2024/01/10 02:06:59;;;;;;;12.98;6.25;;;-3.90;99.90;;;;;;5069759;28;20233;-85
2024/01/10 02:09:25;;;;;;;12.13;7.00;;;-3.90;99.90;;;;;;5091163;28;20267;-86
2024/01/10 02:11:51;;;;;;;12.60;6.83;;;-3.90;99.90;;;;;;5096685;28;20188;-86
2024/01/10 02:14:17;;;;;;;13.00;6.45;;;-3.90;99.90;;;;;;5061152;28;20264;-84
2024/01/10 02:16:43;;;;;;;9.77;5.82;;;-4.00;99.90;;;;;;5059240;28;20187;-86
2024/01/10 02:19:21;;;;;;;11.13;6.73;;;-4.00;99.90;;;;;;5057120;28;20245;-85
2024/01/10 02:21:47;;;;;;;14.98;6.85;;;-4.00;99.90;;;;;;5074924;28;20193;-85
2024/01/10 02:24:13;;;;;;;12.80;6.17;;;-4.00;99.90;;;;;;5071434;28;20177;-84
2024/01/10 02:26:39;;;;;;;11.30;6.37;;;-4.00;99.90;;;;;;5055644;28;20455;-85
2024/01/10 02:29:05;;;;;;;13.10;6.53;;;-4.00;99.90;;;;;;5074914;28;20178;-86
2024/01/10 02:31:30;;;;;;;16.33;7.53;;;-4.00;99.90;;;;;;5060541;28;20176;-86
2024/01/10 02:33:56;;;;;;;12.70;6.40;;;-4.10;99.90;;;;;;5061686;28;20687;-86
2024/01/10 02:36:24;;;;;;;11.67;7.20;;;-4.10;99.90;;;;;;5077002;28;20229;-86
2024/01/10 02:38:50;;;;;;;11.07;6.43;;;-4.10;99.90;;;;;;5089006;28;20204;-86
2024/01/10 02:41:33;;;;;;;11.93;5.90;;;-4.10;99.90;;;;;;5089266;28;20677;-85
2024/01/10 02:44:21;;;;;;;17.08;6.90;;;-4.10;99.90;;;;;;5062704;28;20663;-86
2024/01/10 02:46:47;;;;;;;11.00;6.20;;;-4.10;99.90;;;;;;5062104;28;20196;-85
2024/01/10 02:49:13;;;;;;;12.60;6.73;;;-4.10;99.90;;;;;;5079644;28;20268;-86
2024/01/10 02:51:39;;;;;;;10.73;6.43;;;-4.20;99.90;;;;;;5059691;28;20188;-86
2024/01/10 02:54:27;;;;;;;12.43;6.30;;;-4.20;99.90;;;;;;5053447;28;20654;-84
2024/01/10 02:56:53;;;;;;;11.70;6.40;;;-4.20;99.90;;;;;;5088446;28;20180;-85
2024/01/10 02:59:19;;;;;;;13.53;6.50;;;-4.20;99.90;;;;;;5058959;28;20188;-85
2024/01/10 03:01:50;;;;;;;15.80;7.77;;;-4.20;99.90;;;;;;5057684;28;20204;-86
2024/01/10 03:04:16;;;;;;;11.38;6.63;;;-4.20;99.90;;;;;;5061222;28;20186;-86
2024/01/10 03:07:04;;;;;;;12.83;6.17;;;-4.20;99.90;;;;;;5071141;28;20263;-87
2024/01/10 03:12:49;;;;;;;12.50;6.70;;;-4.20;99.90;;;;;;5073253;28;20181;-87
2024/01/10 03:15:14;;;;;;;11.23;6.38;;;-4.20;99.90;;;;;;5077414;28;20217;-87
2024/01/10 03:17:53;;;;;;;12.83;6.50;;;-4.20;99.90;;;;;;5053693;28;20177;-86
2024/01/10 03:20:19;;;;;;;10.63;5.85;;;-4.20;99.90;;;;;;5065197;28;20184;-85
2024/01/10 03:25:57;;;;;;;11.48;6.63;;;-4.30;1.00;;;;;;5076792;28;20362;-86
2024/01/10 03:28:26;;;;;;;10.10;6.33;;;-4.30;1.00;;;;;;5072026;28;20250;-86
2024/01/10 03:30:55;;;;;;;12.02;6.40;;;-4.30;1.00;;;;;;5057129;28;20475;-85
2024/01/10 03:33:21;;;;;;;12.75;7.05;;;-4.30;1.00;;;;;;5058923;28;20249;-87
2024/01/10 03:35:46;;;;;;;11.50;6.40;;;-4.30;1.00;;;;;;5068512;28;20231;-87
2024/01/10 03:38:12;;;;;;;16.07;6.27;;;-4.30;1.00;;;;;;5084329;28;20518;-87
2024/01/10 03:40:38;;;;;;;17.13;7.70;;;-4.40;1.00;;;;;;5088018;28;20181;-87
2024/01/10 03:43:10;;;;;;;14.67;6.87;;;-4.40;99.90;;;;;;5059531;28;20189;-87
2024/01/10 03:45:41;;;;;;;12.40;6.60;;;-4.40;99.90;;;;;;5072777;28;20201;-85
2024/01/10 03:48:07;;;;;;;10.07;6.07;;;-4.40;99.90;;;;;;5076665;28;20177;-86
2024/01/10 03:50:36;;;;;;;14.40;8.00;;;-4.40;99.90;;;;;;5077161;28;20191;-86
2024/01/10 03:53:07;;;;;;;12.80;6.20;;;-4.40;99.90;;;;;;5078477;28;20260;-85
2024/01/10 03:55:35;;;;;;;16.63;7.70;;;-4.40;99.90;;;;;;5070898;28;20282;-86
2024/01/10 03:58:00;;;;;;;11.25;6.47;;;-4.40;99.90;;;;;;5073331;28;20188;-84
2024/01/10 04:00:28;;;;;;;14.47;6.37;;;-4.40;99.90;;;;;;5060059;28;20174;-85
2024/01/10 04:02:57;;;;;;;10.50;6.38;;;-4.40;99.90;;;;;;5058882;28;20268;-85
2024/01/10 04:05:26;;;;;;;14.80;7.50;;;-4.40;99.90;;;;;;5076776;28;20208;-86
2024/01/10 04:07:56;;;;;;;10.95;6.18;;;-4.40;99.90;;;;;;5054663;28;20189;-85
2024/01/10 04:10:22;;;;;;;13.85;6.97;;;-4.50;99.90;;;;;;5055841;28;20190;-86
2024/01/10 04:12:48;;;;;;;11.93;6.68;;;-4.50;99.90;;;;;;5071506;28;20667;-86
2024/01/10 04:15:17;;;;;;;10.93;6.87;;;-4.50;99.90;;;;;;5061236;28;20364;-86
2024/01/10 04:17:43;;;;;;;10.68;6.22;;;-4.50;99.90;;;;;;5060275;28;20464;-85
2024/01/10 04:20:13;;;;;;;14.00;6.97;;;-4.60;99.90;;;;;;5080829;28;20189;-86
2024/01/10 04:22:39;;;;;;;10.10;6.35;;;-4.60;99.90;;;;;;5054582;28;20199;-86
2024/01/10 04:25:07;;;;;;;10.10;6.33;;;-4.60;99.90;;;;;;5072340;28;20647;-86
2024/01/10 04:27:32;;;;;;;13.27;5.85;;;-4.60;99.90;;;;;;5057897;28;20205;-84
2024/01/10 04:29:58;;;;;;;14.40;7.53;;;-4.60;99.90;;;;;;5065389;28;20192;-86
2024/01/10 04:32:24;;;;;;;13.00;6.93;;;-4.60;1.00;;;;;;5072146;28;20189;-87
2024/01/10 04:34:50;;;;;;;9.67;5.77;;;-4.60;1.00;;;;;;5082833;28;20694;-86
2024/01/10 04:37:16;;;;;;;16.23;6.27;;;-4.60;1.00;;;;;;5078042;28;20438;-85
2024/01/10 04:39:44;;;;;;;14.20;6.43;;;-4.60;1.00;;;;;;5077318;28;20263;-85
2024/01/10 04:42:11;;;;;;;16.67;7.28;;;-4.60;1.00;;;;;;5059716;28;20185;-86
2024/01/10 04:44:37;;;;;;;9.07;5.55;;;-4.60;99.90;;;;;;5070124;28;20180;-86
2024/01/10 04:47:03;;;;;;;17.33;6.95;;;-4.50;99.90;;;;;;5061550;28;20185;-86
2024/01/10 04:49:28;;;;;;;11.35;6.15;;;-4.50;99.90;;;;;;5069451;28;20177;-86
2024/01/10 04:51:54;;;;;;;12.40;6.60;;;-4.50;99.90;;;;;;5082138;28;20181;-86
2024/01/10 04:54:20;;;;;;;13.07;6.90;;;-4.50;99.90;;;;;;5058549;28;20259;-85
2024/01/10 04:56:46;;;;;;;9.77;5.88;;;-4.50;1.00;;;;;;5051532;28;20214;-85
2024/01/10 04:59:12;;;;;;;14.03;6.63;;;-4.50;1.00;;;;;;5055457;28;20705;-85
2024/01/10 05:01:38;;;;;;;10.43;5.90;;;-4.50;99.90;;;;;;5055170;28;20223;-85
2024/01/10 05:04:03;;;;;;;14.57;5.93;;;-4.50;99.90;;;;;;5058377;28;20443;-86
2024/01/10 05:06:32;;;;;;;9.70;5.77;;;-4.50;99.90;;;;;;5074878;28;20888;-85
2024/01/10 05:08:58;;;;;;;12.57;6.72;;;-4.50;99.90;;;;;;5074918;28;20750;-85
2024/01/10 05:11:25;;;;;;;19.73;6.65;;;-4.50;99.90;;;;;;5077729;28;20178;-85
2024/01/10 05:13:54;;;;;;;11.43;6.03;;;-4.50;99.90;;;;;;5065060;28;20265;-85
2024/01/10 05:16:20;;;;;;;14.43;6.60;;;-4.50;99.90;;;;;;5070465;28;20208;-85
2024/01/10 05:18:47;;;;;;;12.60;6.43;;;-4.50;99.90;;;;;;5072441;28;20192;-88
2024/01/10 05:21:13;;;;;;;10.27;7.20;;;-4.50;99.90;;;;;;5074825;28;20243;-86
2024/01/10 05:23:40;;;;;;;13.50;7.40;;;-4.50;99.90;;;;;;5062214;28;20608;-85
2024/01/10 05:26:06;;;;;;;14.00;5.80;;;-4.50;1.00;;;;;;5074520;28;20197;-85
2024/01/10 05:28:31;;;;;;;10.90;6.50;;;-4.50;1.00;;;;;;5075050;28;20558;-87
2024/01/10 05:30:58;;;;;;;11.40;6.17;;;-4.50;1.00;;;;;;5074031;28;20181;-85
2024/01/10 05:33:24;;;;;;;12.73;6.85;;;-4.50;1.00;;;;;;5077643;28;20211;-85
2024/01/10 05:35:49;;;;;;;11.00;6.37;;;-4.50;1.00;;;;;;5075145;28;20213;-85
2024/01/10 05:38:15;;;;;;;13.70;6.70;;;-4.50;1.00;;;;;;5074626;28;20284;-84
2024/01/10 05:40:40;;;;;;;11.77;5.57;;;-4.50;1.00;;;;;;5080266;28;20181;-87
2024/01/10 05:43:07;;;;;;;11.20;6.07;;;-4.50;1.00;;;;;;5062576;28;20181;-87
2024/01/10 05:45:33;;;;;;;14.15;7.13;;;-4.50;1.00;;;;;;5073316;28;20209;-85
2024/01/10 05:47:59;;;;;;;10.65;5.38;;;-4.50;1.00;;;;;;5088228;28;20184;-87
2024/01/10 05:50:24;;;;;;;10.50;5.97;;;-4.50;99.90;;;;;;5073233;28;20186;-87
2024/01/10 05:52:50;;;;;;;13.60;6.73;;;-4.50;99.90;;;;;;5080865;28;20187;-85
2024/01/10 05:55:15;;;;;;;11.70;7.13;;;-4.50;99.90;;;;;;5056510;28;20213;-86
2024/01/10 05:57:41;;;;;;;11.00;6.37;;;-4.50;1.00;;;;;;5062052;28;20207;-87
2024/01/10 06:00:10;;;;;;;12.07;6.87;;;-4.60;1.00;;;;;;5077129;28;20189;-86
2024/01/10 06:02:42;;;;;;;13.70;6.25;;;-4.60;1.00;;;;;;5082964;28;20580;-85
2024/01/10 06:05:09;;;;;;;13.20;6.72;;;-4.60;1.00;;;;;;5070092;28;20197;-84
2024/01/10 06:07:35;;;;;;;13.32;6.60;;;-4.60;1.00;;;;;;5078014;28;20272;-86
2024/01/10 06:10:01;;;;;;;13.10;6.20;;;-4.60;1.00;;;;;;5075826;28;20228;-85
2024/01/10 06:12:27;;;;;;;11.23;6.27;;;-4.60;1.00;;;;;;5055400;28;20209;-84
2024/01/10 06:14:53;;;;;;;14.40;6.75;;;-4.60;1.00;;;;;;5055786;28;20555;-85
2024/01/10 06:17:19;;;;;;;14.63;7.43;;;-4.60;1.00;;;;;;5075270;28;20658;-86
2024/01/10 06:19:44;;;;;;;12.73;6.30;;;-4.60;1.00;;;;;;5082100;28;20181;-85
2024/01/10 06:22:11;;;;;;;12.80;6.40;;;-4.60;1.00;;;;;;5084783;28;20900;-88
2024/01/10 06:24:37;;;;;;;16.00;5.95;;;-4.60;1.00;;;;;;5080972;28;20560;-85
2024/01/10 06:27:06;;;;;;;11.82;6.15;;;-4.60;1.00;;;;;;5087323;28;20180;-86
2024/01/10 06:29:32;;;;;;;10.98;5.75;;;-4.50;1.00;;;;;;5083519;28;20182;-85
2024/01/10 06:31:58;;;;;;;9.55;6.10;;;-4.50;1.00;;;;;;5077713;28;20690;-88
2024/01/10 06:34:24;;;;;;;11.47;6.20;;;-4.50;1.00;;;;;;5079541;28;20216;-86
2024/01/10 06:36:50;;;;;;;10.57;7.03;;;-4.50;1.00;;;;;;5080485;28;20188;-87
2024/01/10 06:39:16;;;;;;;10.33;6.23;;;-4.50;1.00;;;;;;5079296;28;20435;-88
2024/01/10 06:41:42;;;;;;;11.68;6.22;;;-4.50;1.00;;;;;;5072701;28;20196;-87
2024/01/10 06:44:08;;;;;;;13.03;6.60;;;-4.50;1.00;;;;;;5083916;28;20186;-86
2024/01/10 06:46:34;;;;;;;13.93;7.47;;;-4.60;1.00;;;;;;5080852;28;20213;-87
2024/01/10 06:49:00;;;;;;;11.83;6.63;;;-4.60;1.00;;;;;;5078703;28;20410;-87
2024/01/10 06:51:26;;;;;;;10.73;6.80;;;-4.60;1.00;;;;;;5059988;28;20830;-85
2024/01/10 06:53:52;;;;;;;11.80;7.85;;;-4.60;1.00;;;;;;5059833;28;20172;-84
2024/01/10 06:56:17;;;;;;;11.50;7.43;;;-4.60;1.00;;;;;;5086751;28;20209;-83
2024/01/10 06:58:44;;;;;;;13.43;7.77;;;-4.60;1.00;;;;;;5073349;28;20272;-84
2024/01/10 07:01:14;;;;;;;15.10;8.50;;;-4.60;1.00;;;;;;5074011;28;20596;-83
2024/01/10 07:03:40;;;;;;;19.75;11.70;;;-4.60;1.00;;;;;;5055129;28;20608;-85
2024/01/10 07:06:05;;;;;;;20.15;10.38;;;-4.60;1.00;;;;;;5073741;28;20201;-84
2024/01/10 07:08:31;;;;;;;13.80;7.17;;;-4.60;1.00;;;;;;5073643;28;20181;-85
2024/01/10 07:10:57;;;;;;;11.20;7.00;;;-4.50;1.00;;;;;;5094656;28;20187;-84
2024/01/10 07:13:23;;;;;;;14.13;7.33;;;-4.50;1.00;;;;;;5076815;28;20265;-84
2024/01/10 07:15:50;;;;;;;14.55;8.10;;;-4.50;1.00;;;;;;5084744;28;20470;-82
2024/01/10 07:18:16;;;;;;;16.60;8.02;;;-4.60;1.00;;;;;;5086927;28;20174;-83
2024/01/10 07:20:41;;;;;;;16.40;9.10;;;-4.60;1.00;;;;;;5051940;28;20193;-84
2024/01/10 07:23:07;;;;;;;16.40;8.30;;;-4.60;1.00;;;;;;5055666;28;20193;-83
2024/01/10 07:25:33;;;;;;;14.73;8.33;;;-4.60;1.00;;;;;;5066105;28;20209;-83
2024/01/10 07:27:59;;;;;;;16.75;8.10;;;-4.60;1.00;;;;;;5077608;28;20327;-85
2024/01/10 07:30:24;;;;;;;17.83;10.70;;;-4.50;1.00;;;;;;5077762;28;20209;-83
2024/01/10 07:32:50;;;;;;;17.80;8.37;;;-4.50;1.00;;;;;;5074285;28;20188;-84
2024/01/10 07:35:15;;;;;;;12.63;6.83;;;-4.50;1.00;;;;;;5068441;28;20209;-84
2024/01/10 07:37:42;;;;;;;14.70;7.07;;;-4.40;1.00;;;;;;5082661;28;20318;-85
2024/01/10 07:40:10;;;;;;;18.33;7.28;;;-4.20;1.00;;;;;;5074776;28;20174;-84
2024/01/10 07:42:37;;;;;;;11.80;8.05;;;-4.20;1.00;;;;;;5073097;28;20181;-84
2024/01/10 07:45:04;;;;;;;14.55;8.32;;;-4.10;1.00;;;;;;5070264;28;20205;-85
2024/01/10 07:47:30;;;;;;;15.93;9.68;;;-4.00;1.00;;;;;;5054705;28;20186;-84
2024/01/10 07:49:56;;;;;;;15.68;7.32;;;-3.90;1.00;;;;;;5072591;28;20820;-84
2024/01/10 07:52:22;;;;;;;11.30;7.07;;;-3.90;1.00;;;;;;5057156;28;20192;-84
2024/01/10 07:54:48;;;;;;;12.80;6.60;;;-3.80;1.00;;;;;;5080523;28;20246;-84
2024/01/10 07:57:13;;;;;;;16.93;6.83;;;-3.80;1.00;;;;;;5085609;28;20176;-84
2024/01/10 07:59:39;;;;;;;22.07;8.60;;;-3.80;1.00;;;;;;5087779;28;20439;-85
2024/01/10 08:02:04;;;;;;;13.30;8.07;;;-3.70;1.00;;;;;;5074461;28;20308;-84
2024/01/10 08:04:30;;;;;;;16.60;7.60;;;-3.70;1.00;;;;;;5059666;28;20189;-84
2024/01/10 08:06:55;;;;;;;15.23;7.93;;;-3.60;1.00;;;;;;5076837;28;20211;-85
2024/01/10 08:09:23;;;;;;;14.20;7.70;;;-3.60;1.00;;;;;;5084285;28;20193;-84
2024/01/10 08:11:48;;;;;;;19.05;7.40;;;-3.60;1.00;;;;;;5086959;28;20384;-85
2024/01/10 08:14:15;;;;;;;18.40;7.70;;;-3.50;1.00;;;;;;5092991;28;20267;-85
2024/01/10 08:16:41;;;;;;;16.20;8.20;;;-3.40;1.00;;;;;;5074573;28;20207;-86
2024/01/10 08:19:07;;;;;;;15.93;7.50;;;-3.40;1.00;;;;;;5076708;28;20256;-85
2024/01/10 08:21:32;;;;;;;16.97;7.70;;;-3.30;99.90;;;;;;5063504;28;20177;-84
2024/01/10 08:23:58;;;;;;;14.87;7.90;;;-3.30;99.90;;;;;;5073787;28;20945;-85
2024/01/10 08:26:23;;;;;;;18.43;8.50;;;-3.10;1.00;;;;;;5076372;28;20213;-85
2024/01/10 08:28:48;;;;;;;18.20;7.37;;;-2.80;99.90;;;;;;5077687;28;20196;-85
2024/01/10 08:31:16;;;;;;;15.73;8.33;;;-2.40;99.90;;;;;;5077941;28;20188;-85
2024/01/10 08:33:42;;;;;;;20.30;8.35;;;-1.80;99.90;;;;;;5077127;28;20200;-85
2024/01/10 08:36:09;;;;;;;20.03;8.13;;;-1.20;99.90;;;;;;5080489;28;20208;-86
2024/01/10 08:38:35;;;;;;;13.63;7.43;;;-0.60;99.90;;;;;;5073378;28;20173;-85
2024/01/10 08:41:01;;;;;;;21.13;8.93;;;0.00;99.90;;;;;;5057260;28;20185;-85
2024/01/10 08:43:27;;;;;;;17.92;8.95;;;0.30;99.90;;;;;;5083906;28;20263;-86
2024/01/10 08:45:52;;;;;;;21.40;8.20;;;0.40;99.90;;;;;;5075918;28;20245;-86
2024/01/10 08:48:18;;;;;;;19.03;8.93;;;0.50;99.90;;;;;;5058582;28;20188;-86
2024/01/10 08:50:44;;;;;;;22.30;8.97;;;0.60;99.90;;;;;;5074155;28;20268;-87
2024/01/10 08:53:10;;;;;;;14.70;8.90;;;0.90;99.90;;;;;;5072740;28;20264;-86
2024/01/10 08:55:37;;;;;;;15.80;9.52;;;1.50;99.90;;;;;;5092983;28;20485;-85
2024/01/10 08:58:03;;;;;;;21.88;8.90;;;1.60;99.90;;;;;;5055577;28;20174;-86
2024/01/10 09:00:28;;;;;;;22.48;10.18;;;1.70;99.90;;;;;;5075145;28;20256;-86
2024/01/10 09:02:55;;;;;;;19.80;9.53;;;1.60;99.90;;;;;;5078468;28;20235;-86
2024/01/10 09:05:21;;;;;;;17.65;9.70;;;1.60;99.90;;;;;;5071762;28;20554;-86
2024/01/10 09:07:47;;;;;;;18.95;9.85;;;1.50;99.90;;;;;;5060045;28;20186;-87
2024/01/10 09:10:12;;;;;;;24.00;10.90;;;1.20;99.90;;;;;;5070205;28;20192;-86
2024/01/10 09:12:38;;;;;;;21.73;10.13;;;0.90;99.90;;;;;;5058032;28;20440;-85
2024/01/10 09:15:04;;;;;;;17.73;9.30;;;0.60;99.90;;;;;;5076289;28;20216;-84
2024/01/10 09:17:29;;;;;;;14.87;9.50;;;0.10;99.90;;;;;;5075684;28;20181;-84
2024/01/10 09:19:55;;;;;;;18.87;8.77;;;-0.30;99.90;;;;;;5065985;28;20503;-84
2024/01/10 09:22:21;;;;;;;17.27;8.77;;;-0.60;99.90;;;;;;5089929;28;20673;-84
2024/01/10 09:24:46;;;;;;;23.83;9.07;;;-0.90;99.90;;;;;;5074956;28;20209;-83
2024/01/10 09:27:12;;;;;;;17.83;9.67;;;-1.10;99.90;;;;;;5077943;28;20647;-83
2024/01/10 09:29:37;;;;;;;19.33;9.60;;;-1.30;99.90;;;;;;5056516;28;20182;-84
2024/01/10 09:32:03;;;;;;;17.93;9.17;;;-1.40;99.90;;;;;;5064052;28;20186;-84
2024/01/10 09:34:29;;;;;;;19.93;10.00;;;-1.50;99.90;;;;;;5073220;28;20235;-85
2024/01/10 09:36:55;;;;;;;15.60;8.18;;;-1.60;99.90;;;;;;5076410;28;20436;-84
2024/01/10 09:39:20;;;;;;;29.20;8.70;;;-1.70;99.90;;;;;;5074342;28;20185;-82
2024/01/10 09:41:51;;;;;;;20.37;9.07;;;-1.80;99.90;;;;;;5060941;28;20232;-84
2024/01/10 09:44:21;;;;;;;20.67;10.40;;;-1.70;99.90;;;;;;5071678;28;20174;-85
2024/01/10 09:46:51;;;;;;;16.23;9.55;;;-1.90;99.90;;;;;;5076723;28;20537;-84
2024/01/10 09:49:17;;;;;;;23.10;9.32;;;-1.90;99.90;;;;;;5057429;28;20238;-85
2024/01/10 09:51:42;;;;;;;23.47;10.23;;;-2.00;99.90;;;;;;5074243;28;20185;-82
2024/01/10 09:54:08;;;;;;;22.70;9.77;;;-2.00;99.90;;;;;;5069561;28;20972;-84
2024/01/10 09:56:34;;;;;;;20.80;9.50;;;-1.90;99.90;;;;;;5059507;28;20524;-85
2024/01/10 09:59:04;;;;;;;17.83;9.10;;;-1.80;99.90;;;;;;5077411;28;20184;-85
2024/01/10 10:01:30;;;;;;;17.80;10.10;;;-1.80;99.90;;;;;;5074158;28;20178;-85
2024/01/10 10:03:57;;;;;;;19.45;9.63;;;-1.90;99.90;;;;;;5076288;28;20181;-83
2024/01/10 10:06:22;;;;;;;25.70;8.85;;;-1.80;99.90;;;;;;5080998;28;20447;-84
2024/01/10 10:08:48;;;;;;;24.17;10.13;;;-1.70;99.90;;;;;;5072989;28;20189;-84
2024/01/10 10:11:14;;;;;;;20.77;9.83;;;-1.80;99.90;;;;;;5066106;28;20197;-84
2024/01/10 10:13:41;;;;;;;16.08;7.88;;;-1.70;99.90;;;;;;5073351;28;20598;-83
2024/01/10 10:16:09;;;;;;;31.05;10.43;;;-1.70;99.90;;;;;;5089779;28;20232;-83
2024/01/10 10:18:35;;;;;;;20.88;8.75;;;-1.60;99.90;;;;;;5071921;28;20193;-83
2024/01/10 10:21:11;;;;;;;18.13;9.73;;;-1.70;99.90;;;;;;5065800;28;20230;-82
2024/01/10 10:23:37;;;;;;;19.40;9.35;;;-1.50;99.90;;;;;;5079972;28;20447;-83
2024/01/10 10:26:19;;;;;;;22.02;9.52;;;-1.40;99.90;;;;;;5056949;28;20865;-83
2024/01/10 10:28:49;;;;;;;18.42;9.30;;;-1.20;99.90;;;;;;5072730;28;20189;-84
2024/01/10 10:31:16;;;;;;;20.33;9.63;;;-1.20;99.90;;;;;;5074021;28;20588;-82
2024/01/10 10:33:43;;;;;;;23.88;9.10;;;-1.00;99.90;;;;;;5078555;28;20188;-82
2024/01/10 10:36:09;;;;;;;21.73;10.02;;;-0.90;99.90;;;;;;5068989;28;20287;-84
2024/01/10 10:38:36;;;;;;;25.63;10.33;;;-0.80;99.90;;;;;;5071649;28;20262;-85
2024/01/10 10:41:07;;;;;;;21.17;9.63;;;-0.80;99.90;;;;;;5073103;28;20517;-85
2024/01/10 10:43:37;;;;;;;17.15;9.00;;;-0.90;99.90;;;;;;5052482;28;20184;-85
2024/01/10 10:46:09;;;;;;;18.95;10.00;;;-0.70;99.90;;;;;;5068193;28;20209;-85
2024/01/10 10:48:36;;;;;;;27.27;10.95;;;-0.60;99.90;;;;;;5076391;28;20209;-82
2024/01/10 10:51:15;;;;;;;22.95;9.75;;;-0.80;99.90;;;;;;5080050;28;20196;-84
2024/01/10 10:53:45;;;;;;;17.33;8.75;;;-0.90;99.90;;;;;;5074774;28;20566;-85
2024/01/10 10:56:11;;;;;;;23.33;11.45;;;-0.90;99.90;;;;;;5059807;28;20205;-84
2024/01/10 10:58:44;;;;;;;19.73;10.43;;;-0.80;99.90;;;;;;5058692;28;20182;-84
2024/01/10 11:01:14;;;;;;;18.00;8.43;;;-0.90;99.90;;;;;;5078308;28;20181;-84
2024/01/10 11:03:41;;;;;;;22.60;8.52;;;-0.70;99.90;;;;;;5077589;28;20181;-83
2024/01/10 11:06:07;;;;;;;17.88;8.30;;;-0.70;99.90;;;;;;5055575;28;20204;-86
2024/01/10 11:08:45;;;;;;;22.07;10.70;;;-0.60;99.90;;;;;;5076532;28;20182;-84
2024/01/10 11:11:38;;;;;;;23.80;9.95;;;-0.70;99.90;;;;;;5087172;28;20461;-86
2024/01/10 11:14:32;;;;;;;20.13;9.40;;;-0.70;99.90;;;;;;5075052;28;20200;-85
2024/01/10 11:16:57;;;;;;;23.70;10.75;;;-0.60;99.90;;;;;;5079154;28;20235;-84
2024/01/10 11:19:24;;;;;;;20.10;8.80;;;-0.70;99.90;;;;;;5082229;28;20176;-86
2024/01/10 11:22:11;;;;;;;17.15;9.70;;;-0.70;99.90;;;;;;5055805;28;20174;-84
2024/01/10 11:24:37;;;;;;;27.02;11.20;;;-0.70;99.90;;;;;;5071989;28;20258;-86
2024/01/10 11:27:10;;;;;;;19.98;10.05;;;-0.60;99.90;;;;;;5075720;28;20189;-86
2024/01/10 11:29:38;;;;;;;20.38;9.57;;;-0.70;99.90;;;;;;5075102;28;20617;-85
2024/01/10 11:32:05;;;;;;;21.40;10.63;;;-0.50;99.90;;;;;;5072765;28;20185;-85
2024/01/10 11:34:31;;;;;;;19.65;9.77;;;0.10;99.90;;;;;;5059176;28;20280;-87
2024/01/10 11:37:10;;;;;;;18.60;10.10;;;0.70;99.90;;;;;;5054632;28;20206;-86
2024/01/10 11:39:36;;;;;;;29.15;11.85;;;1.20;99.90;;;;;;5067666;28;20204;-86
2024/01/10 11:42:02;;;;;;;21.37;10.03;;;1.90;99.90;;;;;;5075008;28;20185;-86
2024/01/10 11:44:28;;;;;;;20.30;11.13;;;2.70;99.90;;;;;;5061108;28;20480;-85
2024/01/10 11:46:56;;;;;;;21.00;11.23;;;3.30;99.90;;;;;;5080054;28;20182;-83
2024/01/10 11:49:22;;;;;;;25.45;12.40;;;3.60;99.90;;;;;;5063234;28;20327;-86
2024/01/10 11:51:50;;;;;;;22.70;12.85;;;4.10;99.90;;;;;;5082298;28;20256;-85
2024/01/10 11:54:41;;;;;;;28.83;15.00;;;5.10;99.90;;;;;;5078069;28;20241;-85
2024/01/10 11:57:14;;;;;;;24.20;11.47;;;5.60;99.90;;;;;;5066761;28;21042;-85
2024/01/10 11:59:42;;;;;;;26.37;14.77;;;6.00;99.90;;;;;;5079720;28;20479;-85
2024/01/10 12:02:08;;;;;;;28.17;14.40;;;6.40;99.90;;;;;;5061989;28;20419;-84
2024/01/10 12:04:34;;;;;;;29.83;17.47;;;6.40;99.90;;;;;;5079297;28;20499;-85
2024/01/10 12:07:02;;;;;;;25.85;13.48;;;5.70;99.90;;;;;;5084813;28;20185;-85
2024/01/10 12:09:27;;;;;;;25.77;12.68;;;5.10;99.90;;;;;;5083339;28;20196;-84
2024/01/10 12:11:53;;;;;;;37.00;15.03;;;4.40;99.90;;;;;;5063544;28;20645;-85
2024/01/10 12:14:20;;;;;;;26.30;13.10;;;4.20;99.90;;;;;;5075897;28;20173;-84
2024/01/10 12:16:46;;;;;;;26.15;11.85;;;3.20;99.90;;;;;;5065618;28;20189;-85
2024/01/10 12:19:12;;;;;;;21.13;11.20;;;3.10;99.90;;;;;;5082177;28;20177;-85
2024/01/10 12:21:37;;;;;;;28.70;12.63;;;3.10;99.90;;;;;;5082623;28;20193;-85
2024/01/10 12:24:06;;;;;;;29.43;12.67;;;3.00;99.90;;;;;;5076617;28;20210;-84
2024/01/10 12:26:33;;;;;;;22.55;13.10;;;2.90;99.90;;;;;;5079999;28;20299;-84
2024/01/10 12:28:59;;;;;;;24.92;12.13;;;2.80;99.90;;;;;;5076985;28;20249;-84
2024/01/10 12:31:29;;;;;;;32.47;17.40;;;2.70;99.90;;;;;;5077553;28;20542;-85
2024/01/10 12:33:59;;;;;;;30.55;15.43;;;2.70;99.90;;;;;;5078289;28;20188;-84
2024/01/10 12:36:25;;;;;;;22.95;12.80;;;2.40;99.90;;;;;;5060705;28;20205;-84
2024/01/10 12:38:51;;;;;;;21.05;10.77;;;2.40;99.90;;;;;;5059588;28;20186;-83
2024/01/10 12:41:18;;;;;;;31.23;13.37;;;2.50;99.90;;;;;;5059702;28;20182;-84
2024/01/10 12:43:43;;;;;;;27.35;12.85;;;2.30;99.90;;;;;;5088002;28;20775;-84
2024/01/10 12:46:10;;;;;;;22.87;11.80;;;2.30;99.90;;;;;;5062668;28;20216;-85